Time;durP1;ratioP1;P1;durP2;ratioP2;P2;SDS_P1;SDS_P2;PMS_P1;PMS_P2;Temp;Humidity;BMP_temperature;BMP_pressure;BME280_temperature;BME280_humidity;BME280_pressure;Samples;Min_cycle;Max_cycle;Signal;HPM_P1;HPM_P2
2023/10/31 00:00:26;;;;;;;11.68;9.07;;;11.20;99.90;;;;;;5031330;28;20103;-87
2023/10/31 00:02:52;;;;;;;14.10;9.35;;;11.20;99.90;;;;;;5044832;28;20048;-87
2023/10/31 00:05:17;;;;;;;10.38;8.45;;;11.40;99.90;;;;;;5017055;28;20049;-88
2023/10/31 00:07:45;;;;;;;13.15;9.65;;;11.20;99.90;;;;;;5025818;28;20080;-88
2023/10/31 00:10:12;;;;;;;12.13;8.43;;;11.20;99.90;;;;;;5031310;28;20086;-88
2023/10/31 00:12:39;;;;;;;13.80;9.63;;;11.20;99.90;;;;;;5031781;28;20053;-88
2023/10/31 00:15:05;;;;;;;14.48;9.35;;;11.30;99.90;;;;;;5015648;28;20460;-88
2023/10/31 00:17:31;;;;;;;14.60;9.70;;;11.30;99.90;;;;;;5015442;28;20076;-89
2023/10/31 00:19:56;;;;;;;14.70;9.65;;;11.20;99.90;;;;;;5031439;28;20055;-88
2023/10/31 00:22:22;;;;;;;13.52;9.13;;;11.30;99.90;;;;;;5018975;28;20080;-87
2023/10/31 00:24:48;;;;;;;15.25;9.85;;;11.30;99.90;;;;;;5030967;28;20128;-87
2023/10/31 00:27:16;;;;;;;15.50;10.25;;;11.60;99.90;;;;;;5030851;28;20048;-86
2023/10/31 00:29:42;;;;;;;15.23;9.82;;;11.30;99.90;;;;;;5031450;28;20505;-87
2023/10/31 00:32:07;;;;;;;16.77;11.30;;;11.30;99.90;;;;;;5029642;28;20036;-87
2023/10/31 00:34:33;;;;;;;15.35;9.75;;;11.30;99.90;;;;;;5029784;28;20136;-86
2023/10/31 00:36:59;;;;;;;15.55;9.80;;;11.30;99.90;;;;;;5029205;28;20048;-86
2023/10/31 00:39:25;;;;;;;15.77;9.77;;;11.40;99.90;;;;;;5048367;28;20037;-87
2023/10/31 00:41:51;;;;;;;12.02;8.20;;;11.70;99.90;;;;;;5028920;28;20537;-87
2023/10/31 00:44:16;;;;;;;7.07;5.00;;;11.30;99.90;;;;;;5029279;28;20045;-86
2023/10/31 00:46:43;;;;;;;4.95;3.70;;;11.30;99.90;;;;;;5028061;28;20152;-87
2023/10/31 00:49:09;;;;;;;4.05;2.25;;;11.20;99.90;;;;;;5028602;28;20057;-87
2023/10/31 00:51:34;;;;;;;2.50;1.60;;;11.10;99.90;;;;;;5012214;28;20048;-86
2023/10/31 00:54:00;;;;;;;2.30;1.52;;;11.00;99.90;;;;;;5029445;28;20045;-86
2023/10/31 00:56:25;;;;;;;2.13;1.17;;;11.00;99.90;;;;;;5046586;28;20490;-87
2023/10/31 00:58:51;;;;;;;2.08;1.10;;;10.90;99.90;;;;;;5028312;28;20044;-87
2023/10/31 01:01:16;;;;;;;1.17;1.08;;;10.90;99.90;;;;;;5040088;28;20065;-86
2023/10/31 01:03:42;;;;;;;3.60;1.20;;;10.80;99.90;;;;;;5028772;28;20099;-86
2023/10/31 01:06:08;;;;;;;1.90;0.90;;;10.80;99.90;;;;;;5028543;28;20204;-86
2023/10/31 01:08:34;;;;;;;1.10;1.00;;;10.80;99.90;;;;;;5011497;28;20045;-87
2023/10/31 01:11:00;;;;;;;2.70;1.50;;;10.80;99.90;;;;;;5014353;28;20037;-87
2023/10/31 01:13:26;;;;;;;2.17;1.50;;;10.80;99.90;;;;;;5012458;28;21812;-87
2023/10/31 01:15:51;;;;;;;3.33;1.77;;;10.70;99.90;;;;;;5029143;28;20068;-86
2023/10/31 01:18:17;;;;;;;3.25;2.10;;;10.60;99.90;;;;;;5029375;28;20533;-87
2023/10/31 01:20:42;;;;;;;1.90;1.80;;;10.60;99.90;;;;;;5013402;28;20099;-88
2023/10/31 01:23:08;;;;;;;2.20;2.00;;;10.60;99.90;;;;;;5028779;28;20055;-86
2023/10/31 01:25:34;;;;;;;2.13;1.50;;;10.50;99.90;;;;;;5012592;28;20511;-87
2023/10/31 01:27:59;;;;;;;2.40;1.40;;;10.50;99.90;;;;;;5029710;28;20114;-87
2023/10/31 01:30:25;;;;;;;2.55;1.10;;;10.40;99.90;;;;;;5028497;28;20041;-87
2023/10/31 01:32:50;;;;;;;1.05;0.95;;;10.40;99.90;;;;;;5029476;28;20048;-86
2023/10/31 01:35:17;;;;;;;2.55;0.90;;;10.40;99.90;;;;;;5020613;28;20598;-87
2023/10/31 01:37:43;;;;;;;1.48;0.75;;;10.30;99.90;;;;;;5030766;28;20131;-88
2023/10/31 01:40:12;;;;;;;0.70;0.70;;;10.20;99.90;;;;;;5032052;28;20049;-86
2023/10/31 01:42:37;;;;;;;1.25;0.90;;;10.20;99.90;;;;;;5033216;28;20041;-88
2023/10/31 01:45:03;;;;;;;3.42;0.77;;;10.20;99.90;;;;;;5032552;28;20518;-87
2023/10/31 01:47:29;;;;;;;2.42;0.80;;;10.10;99.90;;;;;;5031962;28;20114;-86
2023/10/31 01:49:55;;;;;;;2.25;1.05;;;10.00;99.90;;;;;;5016425;28;20052;-87
2023/10/31 01:52:21;;;;;;;1.13;0.50;;;10.00;99.90;;;;;;5032485;28;20052;-86
2023/10/31 01:54:47;;;;;;;1.70;0.70;;;9.90;99.90;;;;;;5032708;28;20761;-86
2023/10/31 01:57:13;;;;;;;1.63;0.85;;;9.90;99.90;;;;;;5032915;28;20144;-87
2023/10/31 01:59:39;;;;;;;2.55;0.90;;;9.90;99.90;;;;;;5031976;28;20057;-87
2023/10/31 02:02:05;;;;;;;1.10;0.80;;;9.80;99.90;;;;;;5033401;28;20052;-88
2023/10/31 02:04:31;;;;;;;1.02;0.80;;;9.80;99.90;;;;;;5032077;28;20048;-87
2023/10/31 02:06:56;;;;;;;1.80;1.27;;;9.70;99.90;;;;;;5032274;28;20064;-88
2023/10/31 02:09:24;;;;;;;3.22;1.10;;;9.70;99.90;;;;;;5032122;28;20072;-89
2023/10/31 02:11:50;;;;;;;4.78;0.90;;;9.70;99.90;;;;;;5033094;28;20102;-89
2023/10/31 02:14:16;;;;;;;3.92;1.33;;;9.70;99.90;;;;;;5025334;28;20434;-88
2023/10/31 02:16:41;;;;;;;1.77;1.05;;;9.70;99.90;;;;;;5032827;28;20045;-88
2023/10/31 02:19:07;;;;;;;2.40;0.98;;;9.80;99.90;;;;;;5015743;28;20074;-88
2023/10/31 02:21:33;;;;;;;2.67;0.90;;;9.70;99.90;;;;;;5014568;28;20045;-88
2023/10/31 02:24:00;;;;;;;1.63;0.80;;;9.70;99.90;;;;;;5018846;28;20057;-89
2023/10/31 02:26:33;;;;;;;2.08;1.13;;;9.90;99.90;;;;;;5016919;28;20053;-88
2023/10/31 02:29:00;;;;;;;3.92;1.00;;;9.70;99.90;;;;;;5015067;28;20048;-87
2023/10/31 02:31:26;;;;;;;3.55;1.10;;;9.70;99.90;;;;;;5015862;28;20091;-88
2023/10/31 02:33:52;;;;;;;3.90;1.40;;;9.70;99.90;;;;;;5031760;28;20053;-87
2023/10/31 02:36:17;;;;;;;5.53;1.23;;;9.50;99.90;;;;;;5031593;28;20048;-89
2023/10/31 02:38:43;;;;;;;3.08;1.30;;;9.70;99.90;;;;;;4997870;28;20049;-89
2023/10/31 02:41:09;;;;;;;4.30;1.30;;;9.70;99.90;;;;;;5015785;28;20067;-89
2023/10/31 02:43:34;;;;;;;2.50;1.33;;;9.70;99.90;;;;;;5031932;28;20072;-88
2023/10/31 02:46:00;;;;;;;6.90;1.65;;;9.70;99.90;;;;;;5014708;28;20106;-89
2023/10/31 02:48:26;;;;;;;5.78;1.90;;;9.70;99.90;;;;;;5030163;28;20056;-89
2023/10/31 02:50:52;;;;;;;2.67;1.52;;;9.70;99.90;;;;;;5032514;28;20731;-88
2023/10/31 02:53:21;;;;;;;3.08;1.63;;;9.70;99.90;;;;;;5030772;28;20041;-89
2023/10/31 02:55:49;;;;;;;3.70;1.77;;;9.70;99.90;;;;;;5018136;28;20053;-89
2023/10/31 02:58:17;;;;;;;3.80;1.60;;;9.70;99.90;;;;;;5032243;28;20514;-88
2023/10/31 03:00:43;;;;;;;5.75;1.90;;;9.70;99.90;;;;;;5028556;28;20045;-90
2023/10/31 03:03:09;;;;;;;3.85;1.70;;;10.20;99.90;;;;;;5016014;28;20055;-89
2023/10/31 03:05:35;;;;;;;5.28;1.92;;;9.80;99.90;;;;;;4999910;28;20038;-88
2023/10/31 03:08:01;;;;;;;4.35;2.00;;;9.70;99.90;;;;;;5016846;28;20055;-88
2023/10/31 03:10:26;;;;;;;6.97;2.50;;;9.70;99.90;;;;;;5016644;28;20458;-90
2023/10/31 03:12:52;;;;;;;6.00;2.95;;;9.80;99.90;;;;;;5033022;28;20753;-88
2023/10/31 03:15:18;;;;;;;7.70;2.90;;;9.70;99.90;;;;;;5017848;28;20128;-88
2023/10/31 03:17:46;;;;;;;5.43;2.72;;;9.80;99.90;;;;;;5033770;28;20045;-89
2023/10/31 03:20:12;;;;;;;5.50;2.90;;;9.80;99.90;;;;;;5011420;28;20192;-89
2023/10/31 03:22:37;;;;;;;8.75;3.20;;;9.80;99.90;;;;;;5031729;28;20152;-89
2023/10/31 03:25:04;;;;;;;7.18;3.22;;;9.80;99.90;;;;;;5032796;28;20049;-87
2023/10/31 03:27:29;;;;;;;6.20;3.22;;;9.80;99.90;;;;;;5015401;28;20049;-88
2023/10/31 03:29:55;;;;;;;6.13;3.33;;;9.80;99.90;;;;;;5031679;28;20056;-89
2023/10/31 03:32:20;;;;;;;6.32;3.20;;;9.80;99.90;;;;;;5031387;28;20147;-88
2023/10/31 03:34:47;;;;;;;6.70;2.90;;;9.80;99.90;;;;;;5015677;28;20079;-88
2023/10/31 03:37:13;;;;;;;8.07;2.65;;;9.80;99.90;;;;;;5015889;28;20083;-89
2023/10/31 03:39:38;;;;;;;6.43;2.75;;;9.80;99.90;;;;;;5031912;28;20073;-88
2023/10/31 03:42:05;;;;;;;4.63;2.58;;;10.20;99.90;;;;;;5031552;28;20066;-88
2023/10/31 03:44:31;;;;;;;4.88;2.47;;;9.80;99.90;;;;;;5032333;28;20053;-89
2023/10/31 03:46:56;;;;;;;5.15;2.85;;;9.80;99.90;;;;;;5015422;28;20499;-88
2023/10/31 03:49:22;;;;;;;5.20;2.50;;;9.80;99.90;;;;;;5015263;28;20045;-89
2023/10/31 03:51:50;;;;;;;8.93;2.95;;;9.80;99.90;;;;;;5015053;28;20079;-90
2023/10/31 03:54:17;;;;;;;4.28;2.78;;;10.40;99.90;;;;;;5015169;28;20124;-89
2023/10/31 03:56:43;;;;;;;4.88;2.83;;;10.20;99.90;;;;;;5032085;28;20053;-88
2023/10/31 03:59:09;;;;;;;5.47;2.83;;;9.80;99.90;;;;;;5020083;28;20414;-88
2023/10/31 04:01:35;;;;;;;6.38;2.88;;;9.90;99.90;;;;;;5014505;28;20120;-88
2023/10/31 04:04:02;;;;;;;5.70;2.50;;;9.90;99.90;;;;;;5001699;28;20135;-87
2023/10/31 04:06:28;;;;;;;4.43;2.35;;;10.30;99.90;;;;;;5031047;28;20045;-87
2023/10/31 04:08:54;;;;;;;4.70;1.67;;;9.90;99.90;;;;;;5047988;28;20040;-86
2023/10/31 04:11:20;;;;;;;3.53;1.50;;;9.90;99.90;;;;;;5013248;28;20128;-88
2023/10/31 04:13:45;;;;;;;5.00;1.70;;;9.40;99.90;;;;;;5029503;28;20178;-86
2023/10/31 04:16:11;;;;;;;3.72;1.52;;;9.90;99.90;;;;;;5030708;28;20045;-88
2023/10/31 04:18:37;;;;;;;2.05;1.63;;;9.90;99.90;;;;;;5029182;28;20124;-87
2023/10/31 04:21:03;;;;;;;3.17;2.70;;;10.00;99.90;;;;;;5011975;28;20190;-88
2023/10/31 04:23:28;;;;;;;5.72;2.53;;;10.00;99.90;;;;;;5012826;28;20102;-87
2023/10/31 04:25:54;;;;;;;3.75;2.33;;;10.00;99.90;;;;;;5030062;28;20147;-87
2023/10/31 04:28:20;;;;;;;5.70;2.40;;;10.00;99.90;;;;;;5031277;28;20062;-87
2023/10/31 04:30:45;;;;;;;7.10;2.75;;;9.50;99.90;;;;;;5029317;28;20056;-87
2023/10/31 04:33:11;;;;;;;3.33;1.75;;;10.00;99.90;;;;;;5024769;28;20045;-87
2023/10/31 04:35:37;;;;;;;4.25;1.85;;;9.80;99.90;;;;;;5023788;28;20052;-87
2023/10/31 04:38:02;;;;;;;3.65;1.88;;;10.00;99.90;;;;;;5029395;28;20064;-87
2023/10/31 04:40:28;;;;;;;4.25;1.63;;;10.10;99.90;;;;;;5030068;28;20143;-89
2023/10/31 04:42:54;;;;;;;5.70;2.00;;;10.00;99.90;;;;;;5029684;28;20037;-86
2023/10/31 04:45:20;;;;;;;5.68;1.65;;;10.10;99.90;;;;;;5030490;28;20514;-88
2023/10/31 04:47:46;;;;;;;5.57;1.60;;;10.00;99.90;;;;;;5030198;28;20052;-86
2023/10/31 04:50:11;;;;;;;2.90;1.65;;;10.00;99.90;;;;;;5013324;28;20084;-86
2023/10/31 04:52:37;;;;;;;2.95;1.50;;;10.00;99.90;;;;;;5029070;28;20079;-87
2023/10/31 04:55:03;;;;;;;4.10;1.40;;;10.00;99.90;;;;;;5030408;28;20045;-86
2023/10/31 04:57:28;;;;;;;3.75;1.40;;;10.00;99.90;;;;;;5030497;28;20053;-89
2023/10/31 04:59:54;;;;;;;4.18;1.40;;;10.00;99.90;;;;;;5029715;28;20177;-87
2023/10/31 05:02:23;;;;;;;4.60;1.38;;;10.00;99.90;;;;;;5013557;28;20075;-88
2023/10/31 05:04:50;;;;;;;4.93;1.42;;;10.00;99.90;;;;;;5029665;28;20053;-88
2023/10/31 05:07:19;;;;;;;3.92;1.42;;;9.90;99.90;;;;;;5029411;28;20120;-87
2023/10/31 05:09:45;;;;;;;4.22;1.90;;;9.90;99.90;;;;;;5013209;28;20045;-88
2023/10/31 05:12:11;;;;;;;5.55;1.35;;;9.90;99.90;;;;;;5030750;28;20584;-87
2023/10/31 05:14:37;;;;;;;3.30;1.52;;;9.90;99.90;;;;;;5034294;28;20121;-88
2023/10/31 05:17:02;;;;;;;3.42;1.33;;;9.90;99.90;;;;;;5034543;28;20056;-88
2023/10/31 05:19:28;;;;;;;3.45;1.10;;;9.90;99.90;;;;;;5017355;28;20086;-87
2023/10/31 05:21:54;;;;;;;2.17;1.30;;;9.90;99.90;;;;;;5019268;28;20056;-87
2023/10/31 05:24:19;;;;;;;3.53;1.30;;;9.90;99.90;;;;;;5016981;28;20049;-87
2023/10/31 05:26:45;;;;;;;4.47;1.13;;;9.90;99.90;;;;;;5033056;28;20060;-86
2023/10/31 05:29:11;;;;;;;3.17;1.08;;;9.90;99.90;;;;;;5034403;28;20044;-87
2023/10/31 05:31:37;;;;;;;3.40;1.20;;;9.90;99.90;;;;;;5026168;28;20045;-87
2023/10/31 05:34:06;;;;;;;4.30;1.23;;;10.40;99.90;;;;;;5017225;28;20407;-86
2023/10/31 05:36:32;;;;;;;2.90;1.17;;;9.90;99.90;;;;;;5015251;28;20080;-87
2023/10/31 05:38:58;;;;;;;3.13;1.23;;;9.90;99.90;;;;;;5034491;28;20076;-87
2023/10/31 05:41:24;;;;;;;1.48;1.17;;;9.80;99.90;;;;;;5020919;28;20190;-87
2023/10/31 05:43:49;;;;;;;3.75;1.35;;;9.80;99.90;;;;;;5033096;28;20037;-87
2023/10/31 05:46:18;;;;;;;5.95;1.20;;;9.90;99.90;;;;;;5033110;28;20183;-87
2023/10/31 05:48:46;;;;;;;3.20;1.27;;;9.90;99.90;;;;;;5016994;28;20486;-88
2023/10/31 05:51:13;;;;;;;5.65;1.50;;;10.20;99.90;;;;;;5023387;28;20096;-87
2023/10/31 05:53:40;;;;;;;3.20;1.20;;;9.90;99.90;;;;;;5033216;28;20049;-87
2023/10/31 05:56:07;;;;;;;4.03;1.15;;;9.90;99.90;;;;;;5034133;28;20040;-88
2023/10/31 05:58:33;;;;;;;4.18;1.20;;;9.80;99.90;;;;;;5031039;28;20061;-88
2023/10/31 06:00:58;;;;;;;4.00;1.40;;;9.80;99.90;;;;;;5032427;28;20048;-89
2023/10/31 06:03:24;;;;;;;5.13;1.58;;;9.80;99.90;;;;;;5022429;28;20087;-87
2023/10/31 06:05:49;;;;;;;4.47;1.63;;;10.00;99.90;;;;;;5024074;28;20390;-85
2023/10/31 06:08:15;;;;;;;2.42;1.10;;;9.80;99.90;;;;;;5023374;28;20141;-89
2023/10/31 06:10:41;;;;;;;2.90;1.00;;;10.20;99.90;;;;;;5034228;28;20044;-88
2023/10/31 06:13:06;;;;;;;1.42;1.02;;;9.80;99.90;;;;;;5020175;28;20054;-87
2023/10/31 06:15:32;;;;;;;2.78;1.30;;;9.80;99.90;;;;;;5003031;28;20041;-88
2023/10/31 06:17:58;;;;;;;4.72;1.00;;;9.80;99.90;;;;;;5016594;28;20048;-89
2023/10/31 06:20:23;;;;;;;5.45;1.25;;;10.70;99.90;;;;;;5032336;28;20033;-89
2023/10/31 06:22:49;;;;;;;4.93;1.25;;;10.30;99.90;;;;;;5032328;28;20098;-88
2023/10/31 06:25:15;;;;;;;2.97;1.20;;;9.80;99.90;;;;;;5032335;28;20379;-88
2023/10/31 06:27:40;;;;;;;2.90;1.33;;;9.90;99.90;;;;;;5032892;28;20037;-88
2023/10/31 06:30:06;;;;;;;3.60;1.15;;;10.00;99.90;;;;;;5006135;28;20038;-87
2023/10/31 06:32:32;;;;;;;2.28;1.40;;;9.80;99.90;;;;;;5006198;28;20049;-87
2023/10/31 06:34:58;;;;;;;2.40;1.40;;;9.80;99.90;;;;;;5015275;28;20490;-88
2023/10/31 06:37:23;;;;;;;4.55;1.88;;;9.90;99.90;;;;;;5015704;28;20384;-85
2023/10/31 06:39:49;;;;;;;6.05;1.65;;;9.90;99.90;;;;;;5031359;28;20051;-85
2023/10/31 06:42:15;;;;;;;3.92;1.77;;;9.90;99.90;;;;;;5032723;28;20663;-88
2023/10/31 06:44:40;;;;;;;3.75;1.77;;;9.90;99.90;;;;;;5004873;28;20520;-87
2023/10/31 06:47:06;;;;;;;3.55;1.88;;;10.40;99.90;;;;;;5030583;28;20049;-89
2023/10/31 06:49:31;;;;;;;6.72;2.25;;;9.90;99.90;;;;;;5031626;28;20049;-87
2023/10/31 06:51:57;;;;;;;2.75;1.92;;;9.90;99.90;;;;;;5025280;28;20045;-87
2023/10/31 06:54:23;;;;;;;3.78;2.10;;;9.90;99.90;;;;;;5033074;28;20043;-87
2023/10/31 06:56:48;;;;;;;5.03;2.20;;;9.90;99.90;;;;;;5032079;28;20079;-88
2023/10/31 06:59:16;;;;;;;4.68;2.50;;;9.90;99.90;;;;;;5033238;28;20110;-87
2023/10/31 07:01:43;;;;;;;5.18;2.50;;;9.90;99.90;;;;;;5033370;28;20067;-89
2023/10/31 07:04:08;;;;;;;3.03;2.33;;;9.90;99.90;;;;;;5034313;28;20421;-88
2023/10/31 07:06:34;;;;;;;5.57;2.92;;;10.00;99.90;;;;;;5032726;28;20037;-87
2023/10/31 07:09:04;;;;;;;5.43;2.88;;;10.00;99.90;;;;;;5033304;28;20446;-89
2023/10/31 07:11:32;;;;;;;6.15;3.28;;;10.10;99.90;;;;;;5018820;28;20055;-88
2023/10/31 07:13:58;;;;;;;7.47;3.72;;;10.00;99.90;;;;;;5032576;28;20837;-88
2023/10/31 07:16:23;;;;;;;5.35;3.60;;;10.00;99.90;;;;;;5017158;28;20067;-88
2023/10/31 07:18:49;;;;;;;7.32;3.80;;;10.10;99.90;;;;;;5033335;28;20048;-88
2023/10/31 07:21:14;;;;;;;8.52;4.30;;;10.10;99.90;;;;;;5032375;28;20088;-89
2023/10/31 07:23:40;;;;;;;7.85;3.75;;;10.60;99.90;;;;;;5033861;28;20083;-90
2023/10/31 07:26:06;;;;;;;5.80;3.83;;;10.10;99.90;;;;;;5034869;28;20053;-89
2023/10/31 07:28:31;;;;;;;5.50;4.22;;;10.10;99.90;;;;;;5016852;28;20049;-88
2023/10/31 07:30:59;;;;;;;5.35;3.97;;;10.10;99.90;;;;;;5033684;28;20118;-89
2023/10/31 07:33:25;;;;;;;6.32;4.35;;;10.20;99.90;;;;;;5018497;28;20106;-89
2023/10/31 07:35:50;;;;;;;9.40;4.20;;;11.00;99.90;;;;;;5018624;28;20045;-91
2023/10/31 07:38:16;;;;;;;5.05;4.32;;;11.10;99.90;;;;;;5019016;28;20055;-90
2023/10/31 07:40:41;;;;;;;7.63;4.10;;;11.00;99.90;;;;;;5035015;28;20119;-89
2023/10/31 07:43:07;;;;;;;5.50;3.70;;;10.30;99.90;;;;;;5019590;28;20052;-90
2023/10/31 07:45:35;;;;;;;6.20;4.28;;;10.40;99.90;;;;;;5034687;28;20044;-91
2023/10/31 07:48:03;;;;;;;6.35;4.47;;;10.40;99.90;;;;;;5035338;28;20419;-91
2023/10/31 07:50:28;;;;;;;7.72;4.00;;;10.40;99.90;;;;;;5019153;28;20124;-92
2023/10/31 07:52:54;;;;;;;5.43;3.92;;;10.50;99.90;;;;;;5033940;28;20182;-88
2023/10/31 07:55:21;;;;;;;4.70;3.50;;;10.60;99.90;;;;;;5014226;28;20037;-88
2023/10/31 07:57:47;;;;;;;5.15;3.65;;;10.50;99.90;;;;;;5011553;28;20402;-85
2023/10/31 08:00:13;;;;;;;5.68;3.67;;;10.60;99.90;;;;;;5051465;28;20052;-89
2023/10/31 08:02:40;;;;;;;4.38;3.35;;;10.60;99.90;;;;;;5035733;28;20046;-88
2023/10/31 08:05:07;;;;;;;5.15;2.75;;;10.70;99.90;;;;;;5019827;28;20098;-88
2023/10/31 08:07:32;;;;;;;5.38;2.88;;;10.80;99.90;;;;;;5015293;28;20056;-88
2023/10/31 08:09:58;;;;;;;3.38;2.50;;;10.80;99.90;;;;;;5031331;28;20044;-89
2023/10/31 08:12:24;;;;;;;6.13;2.55;;;10.80;99.90;;;;;;5031334;28;20507;-88
2023/10/31 08:14:49;;;;;;;5.68;2.50;;;11.50;99.90;;;;;;5018815;28;20037;-88
2023/10/31 08:17:15;;;;;;;5.05;2.10;;;11.30;99.90;;;;;;5032432;28;20080;-88
2023/10/31 08:19:40;;;;;;;5.05;2.17;;;11.50;99.90;;;;;;5032168;28;20414;-88
2023/10/31 08:22:07;;;;;;;4.80;2.30;;;11.00;99.90;;;;;;5013995;28;20075;-88
2023/10/31 08:24:34;;;;;;;5.85;2.47;;;11.00;99.90;;;;;;5030888;28;20048;-87
2023/10/31 08:27:00;;;;;;;5.97;1.58;;;11.10;99.90;;;;;;5015157;28;20055;-88
2023/10/31 08:29:25;;;;;;;6.68;2.00;;;11.20;99.90;;;;;;5030931;28;20041;-87
2023/10/31 08:31:51;;;;;;;3.47;2.05;;;11.20;99.90;;;;;;5031679;28;20041;-87
2023/10/31 08:34:16;;;;;;;5.57;1.80;;;11.20;99.90;;;;;;5014128;28;20409;-88
2023/10/31 08:36:42;;;;;;;5.25;1.70;;;11.30;99.90;;;;;;5031454;28;20036;-87
2023/10/31 08:39:08;;;;;;;6.45;2.05;;;11.30;99.90;;;;;;5031729;28;20414;-86
2023/10/31 08:41:33;;;;;;;2.13;1.50;;;11.90;99.90;;;;;;5031249;28;20096;-85
2023/10/31 08:44:01;;;;;;;4.43;1.50;;;11.60;99.90;;;;;;5029595;28;20091;-86
2023/10/31 08:46:26;;;;;;;5.10;1.40;;;11.50;99.90;;;;;;5030646;28;20049;-86
2023/10/31 08:48:52;;;;;;;2.03;1.13;;;11.50;99.90;;;;;;5031778;28;20102;-86
2023/10/31 08:51:18;;;;;;;3.83;1.30;;;11.50;99.90;;;;;;5031460;28;20055;-87
2023/10/31 08:53:43;;;;;;;3.17;1.05;;;11.50;99.90;;;;;;5014300;28;20483;-86
2023/10/31 08:56:09;;;;;;;1.95;0.90;;;11.60;99.90;;;;;;5030958;28;20151;-87
2023/10/31 08:58:34;;;;;;;3.10;1.00;;;11.60;99.90;;;;;;5032671;28;20049;-91
2023/10/31 09:01:00;;;;;;;3.10;1.00;;;11.60;99.90;;;;;;5013917;28;20045;-86
2023/10/31 09:03:26;;;;;;;2.65;0.82;;;11.70;99.90;;;;;;5030213;28;20049;-87
2023/10/31 09:05:51;;;;;;;3.72;0.90;;;11.60;99.90;;;;;;5030294;28;20132;-83
2023/10/31 09:08:17;;;;;;;3.13;0.85;;;11.50;99.90;;;;;;5048390;28;20140;-86
2023/10/31 09:10:45;;;;;;;2.47;0.98;;;11.50;99.90;;;;;;5048022;28;20052;-85
2023/10/31 09:13:11;;;;;;;3.58;0.82;;;11.40;99.90;;;;;;5046720;28;20098;-86
2023/10/31 09:15:37;;;;;;;2.80;0.75;;;11.40;99.90;;;;;;5029064;28;20450;-87
2023/10/31 09:18:02;;;;;;;3.33;0.85;;;11.50;99.90;;;;;;5027827;28;20548;-85
2023/10/31 09:20:29;;;;;;;5.53;0.90;;;11.60;99.90;;;;;;5028437;28;20450;-85
2023/10/31 09:22:55;;;;;;;5.10;0.82;;;11.70;99.90;;;;;;5045525;28;20890;-85
2023/10/31 09:25:20;;;;;;;3.22;0.63;;;11.80;99.90;;;;;;5011990;28;20048;-85
2023/10/31 09:27:46;;;;;;;3.55;0.80;;;11.90;99.90;;;;;;5047335;28;20442;-85
2023/10/31 09:30:12;;;;;;;3.25;0.80;;;11.90;99.90;;;;;;5029856;28;20049;-87
2023/10/31 09:32:37;;;;;;;2.28;0.80;;;12.00;99.90;;;;;;5043567;28;20478;-85
2023/10/31 09:35:03;;;;;;;4.55;0.95;;;12.10;99.90;;;;;;5043968;28;20463;-87
2023/10/31 09:37:30;;;;;;;3.40;0.80;;;12.20;99.90;;;;;;5030313;28;20041;-85
2023/10/31 09:39:56;;;;;;;5.13;0.85;;;12.20;99.90;;;;;;5007426;28;20056;-86
2023/10/31 09:42:21;;;;;;;3.00;0.88;;;12.20;99.90;;;;;;4996071;28;20045;-88
2023/10/31 09:44:47;;;;;;;1.83;0.70;;;12.20;99.90;;;;;;5012362;28;20098;-87
2023/10/31 09:47:13;;;;;;;4.97;0.68;;;12.30;99.90;;;;;;5000510;28;20122;-88
2023/10/31 09:49:40;;;;;;;2.40;0.60;;;12.30;99.90;;;;;;5006944;28;20053;-88
2023/10/31 09:52:07;;;;;;;3.60;0.60;;;12.30;99.90;;;;;;5013701;28;20099;-89
2023/10/31 09:54:34;;;;;;;2.28;0.80;;;12.20;99.90;;;;;;5027459;28;20049;-88
2023/10/31 09:57:01;;;;;;;2.97;1.00;;;12.20;99.90;;;;;;5031521;28;20037;-91
2023/10/31 09:59:28;;;;;;;2.03;0.63;;;12.20;99.90;;;;;;5020300;28;20045;-88
2023/10/31 10:01:53;;;;;;;2.67;0.88;;;12.00;99.90;;;;;;5019459;28;20044;-90
2023/10/31 10:04:21;;;;;;;1.58;0.73;;;11.90;99.90;;;;;;5018831;28;20041;-88
2023/10/31 10:07:06;;;;;;;4.32;1.02;;;12.30;99.90;;;;;;5018155;28;20139;-90
2023/10/31 10:09:32;;;;;;;0.85;0.50;;;11.90;99.90;;;;;;5019995;28;20381;-88
2023/10/31 10:12:05;;;;;;;2.47;0.82;;;11.90;99.90;;;;;;5003037;28;20471;-88
2023/10/31 10:14:32;;;;;;;3.53;0.60;;;11.80;99.90;;;;;;5000091;28;20061;-87
2023/10/31 10:16:58;;;;;;;1.00;0.70;;;11.80;99.90;;;;;;5014167;28;20068;-85
2023/10/31 10:19:24;;;;;;;1.20;0.43;;;11.80;99.90;;;;;;5014284;28;20053;-84
2023/10/31 10:21:54;;;;;;;1.20;0.45;;;11.80;99.90;;;;;;5007626;28;20511;-84
2023/10/31 10:24:21;;;;;;;1.15;0.38;;;11.80;99.90;;;;;;5009212;28;20447;-82
2023/10/31 10:26:48;;;;;;;1.23;0.60;;;11.80;99.90;;;;;;5010839;28;20046;-81
2023/10/31 10:29:14;;;;;;;3.47;0.77;;;11.80;99.90;;;;;;4993103;28;20057;-83
2023/10/31 10:31:43;;;;;;;1.85;0.60;;;11.80;99.90;;;;;;5010483;28;20042;-84
2023/10/31 10:34:09;;;;;;;2.70;0.50;;;11.70;99.90;;;;;;5010612;28;20049;-83
2023/10/31 10:36:35;;;;;;;2.72;0.60;;;11.60;99.90;;;;;;5008324;28;20069;-82
2023/10/31 10:39:01;;;;;;;3.33;0.90;;;11.50;99.90;;;;;;5008706;28;20053;-85
2023/10/31 10:41:28;;;;;;;2.72;0.77;;;11.70;99.90;;;;;;4993141;28;20104;-84
2023/10/31 10:44:06;;;;;;;2.45;0.60;;;11.60;99.90;;;;;;5010550;28;20085;-83
2023/10/31 10:46:36;;;;;;;2.85;0.85;;;11.60;99.90;;;;;;4993050;28;20045;-82
2023/10/31 10:49:07;;;;;;;2.65;0.70;;;11.60;99.90;;;;;;5010428;28;20515;-83
2023/10/31 10:51:35;;;;;;;2.08;0.63;;;11.60;99.90;;;;;;5010578;28;20125;-87
2023/10/31 10:54:13;;;;;;;2.22;0.60;;;11.70;99.90;;;;;;4987622;28;20038;-84
2023/10/31 10:56:46;;;;;;;2.17;0.85;;;11.70;99.90;;;;;;5008994;28;20054;-84
2023/10/31 10:59:19;;;;;;;4.25;0.70;;;11.70;99.90;;;;;;5016231;28;20496;-85
2023/10/31 11:01:46;;;;;;;1.90;0.50;;;11.70;99.90;;;;;;5007776;28;20054;-83
2023/10/31 11:04:13;;;;;;;2.47;0.77;;;11.80;99.90;;;;;;5008525;28;20099;-83
2023/10/31 11:06:41;;;;;;;1.90;0.57;;;11.90;99.90;;;;;;5004894;28;20526;-85
2023/10/31 11:09:10;;;;;;;4.22;0.63;;;11.90;99.90;;;;;;5008014;28;20042;-82
2023/10/31 11:11:38;;;;;;;2.30;1.13;;;12.00;99.90;;;;;;5007460;28;20480;-83
2023/10/31 11:14:03;;;;;;;2.65;0.52;;;12.00;99.90;;;;;;5010254;28;20353;-85
2023/10/31 11:16:41;;;;;;;1.08;0.82;;;12.00;99.90;;;;;;5008827;28;20115;-82
2023/10/31 11:19:07;;;;;;;2.97;0.90;;;12.10;99.90;;;;;;5009181;28;20530;-82
2023/10/31 11:21:34;;;;;;;2.05;0.77;;;12.10;99.90;;;;;;5024695;28;20060;-85
2023/10/31 11:24:01;;;;;;;1.92;0.57;;;12.10;99.90;;;;;;5014231;28;20052;-85
2023/10/31 11:26:27;;;;;;;3.80;0.60;;;12.10;99.90;;;;;;5029820;28;20053;-85
2023/10/31 11:29:04;;;;;;;1.33;0.60;;;12.10;99.90;;;;;;5031861;28;20059;-85
2023/10/31 11:31:31;;;;;;;2.55;0.70;;;12.00;99.90;;;;;;5032063;28;20076;-84
2023/10/31 11:33:56;;;;;;;2.38;0.68;;;12.10;99.90;;;;;;5049313;28;20082;-87
2023/10/31 11:36:22;;;;;;;2.53;0.85;;;12.00;99.90;;;;;;5013723;28;20068;-86
2023/10/31 11:38:48;;;;;;;3.72;0.70;;;12.10;99.90;;;;;;5048469;28;20081;-84
2023/10/31 11:41:13;;;;;;;2.75;0.75;;;12.10;99.90;;;;;;5029708;28;20060;-84
2023/10/31 11:43:39;;;;;;;3.20;0.85;;;12.10;99.90;;;;;;5031394;28;20052;-84
2023/10/31 11:46:05;;;;;;;3.67;1.10;;;12.10;99.90;;;;;;5031114;28;20099;-85
2023/10/31 11:48:53;;;;;;;3.13;0.82;;;12.10;99.90;;;;;;5031005;28;20219;-86
2023/10/31 11:51:19;;;;;;;2.78;0.70;;;12.00;99.90;;;;;;5030497;28;20045;-85
2023/10/31 11:53:45;;;;;;;2.35;0.88;;;12.10;99.90;;;;;;5031440;28;20061;-83
2023/10/31 11:56:12;;;;;;;1.00;0.43;;;12.10;99.90;;;;;;5030531;28;20048;-82
2023/10/31 11:58:38;;;;;;;2.65;0.68;;;12.20;99.90;;;;;;5047602;28;20510;-83
2023/10/31 12:01:05;;;;;;;0.63;0.52;;;12.10;99.90;;;;;;5031116;28;20041;-82
2023/10/31 12:03:42;;;;;;;1.30;0.60;;;12.40;99.90;;;;;;5047644;28;20519;-81
2023/10/31 12:06:10;;;;;;;1.20;0.52;;;12.00;99.90;;;;;;5029967;28;20079;-80
2023/10/31 12:08:40;;;;;;;1.15;0.60;;;11.90;99.90;;;;;;5046299;28;20167;-81
2023/10/31 12:11:20;;;;;;;3.05;0.50;;;12.50;99.90;;;;;;5057103;28;20445;-83
2023/10/31 12:14:05;;;;;;;2.53;0.90;;;11.70;99.90;;;;;;5050822;28;20361;-84
2023/10/31 12:16:34;;;;;;;2.72;0.85;;;11.70;99.90;;;;;;5050449;28;20040;-83
2023/10/31 12:19:02;;;;;;;1.20;0.50;;;11.50;99.90;;;;;;5050548;28;20094;-83
2023/10/31 12:21:42;;;;;;;2.08;0.70;;;11.50;99.90;;;;;;5049549;28;20048;-83
2023/10/31 12:24:13;;;;;;;2.05;0.80;;;11.50;99.90;;;;;;5029859;28;20668;-87
2023/10/31 12:26:40;;;;;;;3.40;0.88;;;11.70;99.90;;;;;;5029981;28;20049;-86
2023/10/31 12:29:14;;;;;;;1.63;0.60;;;11.60;99.90;;;;;;5030542;28;20051;-86
2023/10/31 12:31:58;;;;;;;2.28;0.60;;;11.60;99.90;;;;;;5048034;28;20044;-85
2023/10/31 12:34:24;;;;;;;2.15;0.65;;;11.60;99.90;;;;;;5030128;28;20479;-86
2023/10/31 12:36:52;;;;;;;1.02;0.57;;;11.70;99.90;;;;;;5014155;28;20075;-83
2023/10/31 12:39:24;;;;;;;1.20;0.70;;;11.60;99.90;;;;;;5029403;28;20089;-83
2023/10/31 12:41:50;;;;;;;8.53;4.73;;;11.60;99.90;;;;;;5027196;28;20053;-85
2023/10/31 12:44:23;;;;;;;1.77;0.68;;;11.60;99.90;;;;;;5030026;28;20310;-85
2023/10/31 12:46:49;;;;;;;2.70;0.70;;;11.40;99.90;;;;;;5030018;28;20041;-85